Wichita Falls, TX

11:26 AM CDT on September 20, 2014 (GMT -0500)
Wedgewood | Change Station
CLOSE
Current Station
Personal Weather Station
Location: Wichita Falls, TX
Elevation: 961 ft
Nearby Weather Stations

Elev 961 ft 33.91 °N, 98.52 °W | Updated 33 seconds ago

Mostly Cloudy
Mostly Cloudy
81.9 °F
Feels Like 87 °F
N
5.0
Wind Variable Wind from SE
Gusts 7.0 mph

Today
High -- | Low -- °F
--% Chance of Precip.
Yesterday
High -- | Low -- °F
Precip. -- in
7:20 AM 7:33 PM
Waning Crescent, 11% visible
Pressure 30.04 in
Visibility 10.0 miles
Clouds Mostly Cloudy 1600 ft
Heat Index 87 °F
Dew Point 73 °F
Humidity 74%
Rainfall 0.00 in
Snow Depth Not available.
UV 3 out of 12
Pollen 6.50 out of 12
Air Quality Not available.
Flu Activity Not available.
METAR KCWC 201615Z AUTO 19004KT 10SM BKN016 27/20 A3004 RMK AO2 T02650204

More Conditions Fewer Conditions

Pressure 30.04 in
Visibility 10.0 miles
Clouds Mostly Cloudy 1600 ft
Heat Index 87 °F
Dew Point 73 °F
Humidity 74%
Rainfall 0.00 in
Snow Depth Not available.
UV 3 out of 12
Pollen 6.50 out of 12
Air Quality Not available.
Flu Activity Not available.
METAR KCWC 201615Z AUTO 19004KT 10SM BKN016 27/20 A3004 RMK AO2 T02650204

More Conditions Fewer Conditions

10-Day Weather Forecast

Almanac

Astronomy

Sep. 20, 2014 Rise Set
Actual Time 7:20 AM CDT 7:33 PM CDT
Civil Twilight 6:55 AM CDT 7:58 PM CDT
Nautical Twilight 6:26 AM CDT 8:27 PM CDT
Astronomical Twilight 5:57 AM CDT 8:56 PM CDT
Moon 4:08 AM CDT 5:31 PM CDT
Length of Visible Light 13h 02m
Length of Day
12h 12m
Tomorrow will be 2m 5s shorter.
Waning Crescent, 11% of the Moon is Illuminated
Today
Waning Crescent
Sep 24
New
Oct 1
First Quarter
Oct 8
Full
Oct 15
Last Quarter

Today's Extremes

State Highs State Lows

Community

WunderPhotos

Upload Photos

1,754,891 photos uploaded!

Nearby

Snow Depth

Station Depth Elevation
No new snow has been reported.

Earthquake Activity

City Distance Mag. Time & Date
Luther, Oklahoma 145 miles 2.7 4:47 PM CDT
2014-09-19
Guthrie, Oklahoma 145 miles 3.6 12:23 PM CDT
2014-09-19
Jones, Oklahoma 134 miles 2.8 1:13 AM CDT
2014-09-19
Guthrie, Oklahoma 146 miles 3.0 7:08 PM CDT
2014-09-18
Minimum magnitude displayed is 2.5.

Coastal Water Temperatures

Place Temperature
No Stations Reporting

Nearby Weather Stations